createdAt,value
2023-05-21T00:00:45.951Z,64.12
2023-05-21T00:03:16.510Z,64.07
2023-05-21T00:05:56.016Z,64.18
2023-05-21T00:08:24.999Z,64.02
2023-05-21T00:11:03.721Z,64.30
2023-05-21T00:13:30.623Z,64.49
2023-05-21T00:15:57.719Z,65.10
2023-05-21T00:18:25.863Z,65.45
2023-05-21T00:20:53.142Z,65.54
2023-05-21T00:23:20.092Z,64.97
2023-05-21T00:25:47.237Z,65.40
2023-05-21T00:28:15.320Z,65.09
2023-05-21T00:30:45.891Z,65.03
2023-05-21T00:33:14.109Z,65.59
2023-05-21T00:35:41.215Z,65.66
2023-05-21T00:38:09.593Z,66.07
2023-05-21T00:40:36.522Z,66.18
2023-05-21T00:43:03.603Z,66.49
2023-05-21T00:45:30.535Z,66.51
2023-05-21T00:47:57.867Z,66.22
2023-05-21T00:50:29.529Z,66.86
2023-05-21T00:52:56.957Z,66.68
2023-05-21T00:55:24.861Z,66.94
2023-05-21T00:57:52.181Z,67.33
2023-05-21T01:00:20.797Z,67.10
2023-05-21T01:02:52.272Z,67.27
2023-05-21T01:05:19.601Z,67.45
2023-05-21T01:07:46.882Z,67.30
2023-05-21T01:10:18.011Z,67.71
2023-05-21T01:12:46.072Z,67.62
2023-05-21T01:15:19.372Z,67.70
2023-05-21T01:17:51.744Z,67.64
2023-05-21T01:20:20.406Z,68.22
2023-05-21T01:22:54.550Z,68.07
2023-05-21T01:25:23.005Z,68.35
2023-05-21T01:27:52.848Z,68.79
2023-05-21T01:30:21.352Z,68.88
2023-05-21T01:33:13.825Z,68.51
2023-05-21T01:35:47.118Z,68.72
2023-05-21T01:38:14.144Z,68.70
2023-05-21T01:40:44.593Z,68.88
2023-05-21T01:43:13.281Z,69.20
2023-05-21T01:45:46.584Z,68.90
2023-05-21T01:48:14.988Z,69.34
2023-05-21T01:50:47.404Z,69.28
2023-05-21T01:53:17.491Z,69.40
2023-05-21T01:55:51.714Z,69.24
2023-05-21T01:58:23.112Z,69.42
2023-05-21T02:00:54.249Z,69.86
2023-05-21T02:03:34.039Z,69.95
2023-05-21T02:06:04.341Z,69.90
2023-05-21T02:08:38.823Z,70.63
2023-05-21T02:13:58.324Z,69.94
2023-05-21T02:16:30.226Z,70.81
2023-05-21T02:18:58.059Z,71.16
2023-05-21T02:21:31.958Z,70.66
2023-05-21T02:24:01.534Z,71.07
2023-05-21T02:26:42.008Z,71.22
2023-05-21T02:29:09.505Z,71.42
2023-05-21T02:31:37.204Z,71.75
2023-05-21T02:34:10.599Z,71.85
2023-05-21T02:36:37.792Z,71.95
2023-05-21T02:39:05.087Z,72.22
2023-05-21T02:41:35.378Z,72.47
2023-05-21T02:44:05.306Z,72.50
2023-05-21T02:46:40.970Z,72.56
2023-05-21T02:49:14.028Z,72.63
2023-05-21T02:51:44.775Z,72.08
2023-05-21T02:54:14.120Z,73.62
2023-05-21T02:56:41.026Z,73.59
2023-05-21T02:59:07.631Z,73.17
2023-05-21T03:01:34.739Z,73.74
2023-05-21T03:04:09.113Z,72.99
2023-05-21T03:06:37.140Z,73.86
2023-05-21T03:09:05.934Z,73.83
2023-05-21T03:11:44.303Z,74.35
2023-05-21T03:14:11.427Z,74.35
2023-05-21T03:16:41.907Z,74.40
2023-05-21T03:19:10.058Z,74.73
2023-05-21T03:21:38.685Z,74.56
2023-05-21T03:24:07.177Z,74.91
2023-05-21T03:26:42.146Z,75.28
2023-05-21T03:29:11.131Z,75.81
2023-05-21T03:31:37.940Z,75.30
2023-05-21T03:34:10.766Z,75.73
2023-05-21T03:36:39.499Z,75.61
2023-05-21T03:39:07.249Z,75.29
2023-05-21T03:41:37.362Z,75.77
2023-05-21T03:44:07.874Z,75.85
2023-05-21T03:46:34.830Z,76.21
2023-05-21T03:49:04.681Z,76.50
2023-05-21T03:51:32.061Z,76.48
2023-05-21T03:54:06.981Z,76.50
2023-05-21T03:56:39.093Z,76.77
2023-05-21T03:59:05.938Z,76.67
2023-05-21T04:01:33.690Z,76.74
2023-05-21T04:04:03.350Z,76.97
2023-05-21T04:06:32.746Z,77.18
2023-05-21T04:09:01.718Z,77.18
2023-05-21T04:11:28.815Z,77.76
2023-05-21T04:13:55.642Z,76.95
2023-05-21T04:18:56.041Z,78.34
2023-05-21T04:21:24.304Z,78.71
2023-05-21T04:23:52.515Z,78.90
2023-05-21T04:26:23.346Z,78.63
2023-05-21T04:28:51.641Z,78.94
2023-05-21T04:31:22.819Z,78.79
2023-05-21T04:33:53.021Z,78.85
2023-05-21T04:36:20.367Z,78.91
2023-05-21T04:38:47.417Z,78.45
2023-05-21T04:41:14.817Z,79.05
2023-05-21T04:43:44.069Z,78.67
2023-05-21T04:46:18.854Z,79.17
2023-05-21T04:48:47.174Z,78.68
2023-05-21T04:51:15.383Z,78.85
2023-05-21T04:53:42.680Z,79.59
2023-05-21T04:56:10.117Z,79.20
2023-05-21T04:58:39.505Z,79.27
2023-05-21T05:01:09.087Z,79.74
2023-05-21T05:03:36.852Z,79.76
2023-05-21T05:06:04.673Z,79.69
2023-05-21T05:08:46.466Z,78.62
2023-05-21T05:11:16.655Z,79.36
2023-05-21T05:13:44.075Z,79.50
2023-05-21T05:16:11.569Z,79.20
2023-05-21T05:18:38.422Z,79.39
2023-05-21T05:21:05.282Z,79.88
2023-05-21T05:23:32.010Z,79.35
2023-05-21T05:25:58.985Z,79.39
2023-05-21T05:28:26.129Z,79.39
2023-05-21T05:30:56.306Z,79.06
2023-05-21T05:33:24.494Z,79.20
2023-05-21T05:35:51.259Z,79.49
2023-05-21T05:38:21.437Z,79.36
2023-05-21T05:40:48.166Z,78.70
2023-05-21T05:43:15.520Z,79.11
2023-05-21T05:45:42.398Z,78.91
2023-05-21T05:48:09.404Z,78.37
2023-05-21T05:50:36.168Z,78.95
2023-05-21T05:53:02.812Z,79.50
2023-05-21T05:55:30.733Z,79.00
2023-05-21T05:57:57.568Z,78.93
2023-05-21T06:00:24.402Z,78.92
2023-05-21T06:02:51.367Z,79.16
2023-05-21T06:05:19.023Z,79.03
2023-05-21T06:10:26.597Z,78.39
2023-05-21T06:12:53.389Z,77.83
2023-05-21T06:15:20.472Z,77.43
2023-05-21T06:17:47.776Z,76.22
2023-05-21T06:20:18.903Z,76.13
2023-05-21T06:22:45.920Z,75.15
2023-05-21T06:25:13.082Z,74.20
2023-05-21T06:27:39.678Z,72.06
2023-05-21T06:30:07.648Z,70.95
2023-05-21T06:32:39.464Z,70.03
2023-05-21T06:35:06.623Z,70.12
2023-05-21T06:37:33.225Z,69.27
2023-05-21T06:40:00.989Z,70.66
2023-05-21T06:42:27.604Z,71.32
2023-05-21T06:44:54.834Z,71.97
2023-05-21T06:47:21.971Z,71.77
2023-05-21T06:49:51.392Z,71.12
2023-05-21T06:52:21.821Z,70.69
2023-05-21T06:54:51.005Z,71.41
2023-05-21T06:57:21.680Z,71.83
2023-05-21T06:59:51.133Z,72.55
2023-05-21T07:02:17.827Z,71.93
2023-05-21T07:04:53.857Z,72.49
2023-05-21T07:07:20.884Z,73.24
2023-05-21T07:09:47.674Z,72.30
2023-05-21T07:12:17.171Z,72.65
2023-05-21T07:14:47.125Z,72.91
2023-05-21T07:17:19.329Z,71.89
2023-05-21T07:19:46.163Z,71.93
2023-05-21T07:22:14.374Z,71.75
2023-05-21T07:24:41.353Z,71.23
2023-05-21T07:27:17.751Z,71.29
2023-05-21T07:29:51.948Z,70.51
2023-05-21T07:32:18.981Z,70.93
2023-05-21T07:34:48.014Z,70.67
2023-05-21T07:37:14.861Z,70.82
2023-05-21T07:39:41.375Z,68.96
2023-05-21T07:42:08.026Z,68.76
2023-05-21T07:44:34.859Z,69.33
2023-05-21T07:47:02.465Z,69.09
2023-05-21T07:49:29.169Z,68.72
2023-05-21T07:51:56.311Z,68.37
2023-05-21T07:54:26.494Z,67.76
2023-05-21T07:56:54.664Z,67.78
2023-05-21T07:59:21.308Z,67.37
2023-05-21T08:01:48.079Z,66.50
2023-05-21T08:04:14.874Z,66.92
2023-05-21T08:06:41.828Z,67.49
2023-05-21T08:09:09.924Z,67.10
2023-05-21T08:11:36.923Z,67.12
2023-05-21T08:14:05.609Z,67.26
2023-05-21T08:16:33.637Z,67.31
2023-05-21T08:19:00.436Z,67.99
2023-05-21T08:21:27.090Z,66.99
2023-05-21T08:23:54.602Z,68.08
2023-05-21T08:26:22.178Z,66.94
2023-05-21T08:28:49.019Z,67.14
2023-05-21T08:31:18.542Z,67.48
2023-05-21T08:33:58.726Z,66.39
2023-05-21T08:36:25.632Z,66.74
2023-05-21T08:38:53.947Z,67.12
2023-05-21T08:41:23.314Z,67.60
2023-05-21T08:43:57.964Z,67.80
2023-05-21T08:46:25.905Z,67.41
2023-05-21T08:48:56.856Z,67.11
2023-05-21T08:51:24.548Z,66.81
2023-05-21T08:53:51.213Z,66.27
2023-05-21T08:56:18.423Z,65.44
2023-05-21T08:58:49.755Z,65.01
2023-05-21T09:01:19.975Z,64.91
2023-05-21T09:04:01.695Z,63.89
2023-05-21T09:06:38.974Z,62.99
2023-05-21T09:09:15.278Z,62.97
2023-05-21T09:11:42.437Z,62.16
2023-05-21T09:14:10.988Z,61.05
2023-05-21T09:16:38.993Z,62.57
2023-05-21T09:19:06.176Z,62.13
2023-05-21T09:21:33.333Z,61.96
2023-05-21T09:24:01.749Z,62.33
2023-05-21T09:26:28.750Z,62.26
2023-05-21T09:29:00.918Z,60.80
2023-05-21T09:31:32.435Z,59.48
2023-05-21T09:33:59.842Z,60.15
2023-05-21T09:36:27.956Z,60.56
2023-05-21T09:38:54.529Z,59.44
2023-05-21T09:41:32.124Z,60.43
2023-05-21T09:44:02.557Z,60.55
2023-05-21T09:46:41.962Z,61.05
2023-05-21T09:49:30.120Z,60.72
2023-05-21T09:52:00.468Z,60.80
2023-05-21T09:54:32.432Z,60.42
2023-05-21T09:57:03.243Z,60.67
2023-05-21T09:59:39.763Z,60.14
2023-05-21T10:02:22.108Z,59.91
2023-05-21T10:04:55.662Z,59.66
2023-05-21T10:07:30.374Z,59.03
2023-05-21T10:09:58.191Z,59.49
2023-05-21T10:12:25.640Z,59.33
2023-05-21T10:14:57.924Z,59.54
2023-05-21T10:17:28.795Z,60.15
2023-05-21T10:19:56.895Z,59.49
2023-05-21T10:22:25.041Z,59.56
2023-05-21T10:24:55.216Z,59.12
2023-05-21T10:27:24.119Z,58.99
2023-05-21T10:29:51.086Z,58.96
2023-05-21T10:32:21.930Z,58.49
2023-05-21T10:34:50.018Z,57.87
2023-05-21T10:37:16.980Z,58.82
2023-05-21T10:39:46.243Z,57.92
2023-05-21T10:42:21.470Z,58.81
2023-05-21T10:45:19.451Z,58.55
2023-05-21T10:48:25.183Z,58.43
2023-05-21T10:51:18.569Z,58.06
2023-05-21T10:54:01.698Z,57.86
2023-05-21T10:57:16.947Z,57.10
2023-05-21T10:59:55.287Z,56.96
2023-05-21T11:02:26.162Z,57.51
2023-05-21T11:05:01.166Z,57.95
2023-05-21T11:07:50.471Z,57.91
2023-05-21T11:10:37.899Z,57.21
2023-05-21T11:13:18.921Z,57.04
2023-05-21T11:15:58.089Z,58.31
2023-05-21T11:18:38.145Z,57.61
2023-05-21T11:21:15.986Z,57.54
2023-05-21T11:23:57.459Z,56.78
2023-05-21T11:26:26.339Z,57.45
2023-05-21T11:29:05.161Z,56.56
2023-05-21T11:31:38.749Z,56.33
2023-05-21T11:34:30.290Z,57.05
2023-05-21T11:37:19.239Z,56.18
2023-05-21T11:39:46.191Z,55.76
2023-05-21T11:42:32.235Z,56.56
2023-05-21T11:45:03.174Z,56.52
2023-05-21T11:47:31.634Z,55.70
2023-05-21T11:50:03.634Z,55.63
2023-05-21T11:52:33.605Z,56.14
2023-05-21T11:55:03.510Z,55.93
2023-05-21T11:57:33.103Z,55.71
2023-05-21T12:00:16.464Z,55.85
2023-05-21T12:02:52.271Z,57.11
2023-05-21T12:05:19.238Z,56.36
2023-05-21T12:07:50.918Z,55.39
2023-05-21T12:10:23.745Z,55.25
2023-05-21T12:12:57.712Z,57.45
2023-05-21T12:15:27.299Z,57.28
2023-05-21T12:17:56.068Z,56.53
2023-05-21T12:20:25.236Z,55.80
2023-05-21T12:22:51.942Z,56.53
2023-05-21T12:25:25.614Z,56.03
2023-05-21T12:27:58.217Z,56.61
2023-05-21T12:30:26.050Z,55.72
2023-05-21T12:32:52.903Z,56.13
2023-05-21T12:35:24.175Z,56.76
2023-05-21T12:37:52.742Z,57.12
2023-05-21T12:40:20.620Z,57.44
2023-05-21T12:42:47.767Z,56.15
2023-05-21T12:45:15.031Z,55.69
2023-05-21T12:47:52.953Z,56.67
2023-05-21T12:50:23.161Z,56.28
2023-05-21T12:52:54.752Z,55.14
2023-05-21T12:55:23.776Z,56.00
2023-05-21T12:58:00.049Z,55.50
2023-05-21T13:00:28.123Z,56.71
2023-05-21T13:02:57.437Z,56.36
2023-05-21T13:05:25.416Z,55.97
2023-05-21T13:07:54.392Z,55.55
2023-05-21T13:10:21.290Z,55.87
2023-05-21T13:12:49.981Z,56.54
2023-05-21T13:15:27.265Z,55.45
2023-05-21T13:17:56.553Z,55.04
2023-05-21T13:20:26.528Z,54.37
2023-05-21T13:22:56.392Z,55.74
2023-05-21T13:25:25.297Z,54.86
2023-05-21T13:27:54.364Z,55.76
2023-05-21T13:30:21.998Z,56.83
2023-05-21T13:32:50.749Z,56.58
2023-05-21T13:35:17.805Z,54.58
2023-05-21T13:37:46.686Z,55.53
2023-05-21T13:40:17.524Z,55.30
2023-05-21T13:42:51.864Z,55.86
2023-05-21T13:45:24.695Z,56.59
2023-05-21T13:47:51.541Z,56.34
2023-05-21T13:50:20.818Z,56.16
2023-05-21T13:52:50.276Z,56.41
2023-05-21T13:55:19.928Z,56.08
2023-05-21T13:57:48.835Z,55.42
2023-05-21T14:00:16.341Z,56.01
2023-05-21T14:02:45.898Z,54.81
2023-05-21T14:05:17.676Z,56.47
2023-05-21T14:07:44.539Z,56.45
2023-05-21T14:10:32.514Z,56.00
2023-05-21T14:13:15.465Z,56.23
2023-05-21T14:15:43.524Z,55.23
2023-05-21T14:18:12.553Z,55.44
2023-05-21T14:20:39.555Z,55.71
2023-05-21T14:23:06.316Z,55.75
2023-05-21T14:25:33.514Z,56.06
2023-05-21T14:28:01.097Z,56.13
2023-05-21T14:30:27.688Z,55.56
2023-05-21T14:32:55.981Z,56.87
2023-05-21T14:35:24.965Z,55.39
2023-05-21T14:37:53.232Z,55.48
2023-05-21T14:40:23.427Z,55.42
2023-05-21T14:42:54.765Z,55.17
2023-05-21T14:45:21.595Z,55.83
2023-05-21T14:47:49.077Z,56.65
2023-05-21T14:50:16.631Z,56.76
2023-05-21T14:52:43.550Z,57.60
2023-05-21T14:55:13.010Z,58.53
2023-05-21T14:57:40.226Z,58.18
2023-05-21T15:00:08.486Z,57.92
2023-05-21T15:02:36.173Z,58.32
2023-05-21T15:05:02.904Z,57.60
2023-05-21T15:07:29.547Z,57.54
2023-05-21T15:09:56.411Z,57.17
2023-05-21T15:12:24.488Z,57.96
2023-05-21T15:14:55.698Z,58.88
2023-05-21T15:17:31.245Z,58.00
2023-05-21T15:20:05.906Z,58.89
2023-05-21T15:22:33.229Z,58.05
2023-05-21T15:25:03.851Z,59.02
2023-05-21T15:27:31.277Z,58.59
2023-05-21T15:29:58.881Z,58.97
2023-05-21T15:32:25.876Z,59.66
2023-05-21T15:34:56.054Z,58.42
2023-05-21T15:37:38.361Z,59.26
2023-05-21T15:40:06.241Z,58.46
2023-05-21T15:42:36.038Z,58.84
2023-05-21T15:45:06.992Z,58.42
2023-05-21T15:47:33.993Z,59.92
2023-05-21T15:50:01.140Z,58.33
2023-05-21T15:52:28.294Z,58.81
2023-05-21T15:54:55.649Z,59.36
2023-05-21T15:57:23.079Z,58.81
2023-05-21T15:59:55.087Z,59.55
2023-05-21T16:02:21.751Z,60.56
2023-05-21T16:04:52.573Z,59.13
2023-05-21T16:07:31.068Z,60.64
2023-05-21T16:09:57.882Z,60.12
2023-05-21T16:12:26.465Z,59.96
2023-05-21T16:14:57.179Z,59.23
2023-05-21T16:17:24.263Z,60.56
2023-05-21T16:19:53.526Z,60.88
2023-05-21T16:22:24.172Z,59.98
2023-05-21T16:24:50.930Z,60.57
2023-05-21T16:27:21.998Z,61.10
2023-05-21T16:29:50.132Z,61.09
2023-05-21T16:32:17.172Z,61.13
2023-05-21T16:34:44.402Z,61.30
2023-05-21T16:37:11.728Z,61.82
2023-05-21T16:39:40.669Z,62.18
2023-05-21T16:42:32.813Z,61.23
2023-05-21T16:45:08.113Z,61.65
2023-05-21T16:47:37.783Z,62.16
2023-05-21T16:50:29.127Z,62.77
2023-05-21T16:53:04.426Z,62.70
2023-05-21T16:55:42.630Z,63.26
2023-05-21T16:58:16.836Z,62.62
2023-05-21T17:00:44.553Z,62.63
2023-05-21T17:03:13.688Z,62.53
2023-05-21T17:05:43.502Z,63.49
2023-05-21T17:08:32.102Z,63.02
2023-05-21T17:10:59.357Z,63.94
2023-05-21T17:13:59.015Z,63.11
2023-05-21T17:16:25.893Z,64.80
2023-05-21T17:18:55.660Z,64.70
2023-05-21T17:21:33.706Z,64.92
2023-05-21T17:24:10.760Z,64.42
2023-05-21T17:26:39.554Z,65.49
2023-05-21T17:29:34.882Z,64.49
2023-05-21T17:35:03.670Z,65.80
2023-05-21T17:37:39.758Z,65.71
2023-05-21T17:40:08.620Z,65.92
2023-05-21T17:42:50.922Z,65.93
2023-05-21T17:45:36.329Z,66.14
2023-05-21T17:48:23.401Z,66.09
2023-05-21T17:50:54.762Z,66.42
2023-05-21T17:56:15.549Z,67.44
2023-05-21T17:58:42.178Z,67.13
2023-05-21T18:01:08.852Z,67.08
2023-05-21T18:03:36.036Z,67.41
2023-05-21T18:06:02.714Z,67.24
2023-05-21T18:11:11.262Z,68.35
2023-05-21T18:13:38.189Z,68.60
2023-05-21T18:16:09.201Z,68.39
2023-05-21T18:18:36.064Z,69.09
2023-05-21T18:21:05.836Z,68.86
2023-05-21T18:23:33.481Z,69.55
2023-05-21T18:26:00.214Z,69.80
2023-05-21T18:28:29.594Z,69.72
2023-05-21T18:31:01.046Z,70.22
2023-05-21T18:33:27.781Z,69.79
2023-05-21T18:35:54.851Z,70.67
2023-05-21T18:38:23.370Z,70.46
2023-05-21T18:40:54.976Z,70.51
2023-05-21T18:43:21.621Z,70.73
2023-05-21T18:45:48.261Z,70.96
2023-05-21T18:48:16.890Z,71.60
2023-05-21T18:50:43.824Z,71.62
2023-05-21T18:53:14.600Z,71.43
2023-05-21T18:55:41.492Z,71.70
2023-05-21T18:58:08.105Z,72.29
2023-05-21T19:00:38.005Z,71.78
2023-05-21T19:03:04.955Z,72.02
2023-05-21T19:05:34.156Z,73.06
2023-05-21T19:08:01.088Z,72.98
2023-05-21T19:10:27.795Z,73.00
2023-05-21T19:12:54.631Z,73.27
2023-05-21T19:15:22.008Z,73.57
2023-05-21T19:17:51.859Z,73.67
2023-05-21T19:20:25.263Z,73.60
2023-05-21T19:22:51.973Z,74.00
2023-05-21T19:25:21.492Z,74.70
2023-05-21T19:27:48.490Z,75.16
2023-05-21T19:30:17.892Z,74.88
2023-05-21T19:32:49.199Z,75.60
2023-05-21T19:35:16.901Z,75.39
2023-05-21T19:37:43.816Z,75.56
2023-05-21T19:40:19.779Z,76.16
2023-05-21T19:42:46.598Z,76.06
2023-05-21T19:45:13.469Z,76.73
2023-05-21T19:47:41.447Z,77.37
2023-05-21T19:50:21.892Z,77.35
2023-05-21T19:52:49.016Z,77.38
2023-05-21T19:55:23.339Z,78.37
2023-05-21T19:57:52.621Z,78.33
2023-05-21T20:00:21.621Z,78.75
2023-05-21T20:02:48.203Z,78.38
2023-05-21T20:05:16.940Z,79.11
2023-05-21T20:07:43.886Z,79.18
2023-05-21T20:10:13.708Z,79.13
2023-05-21T20:12:40.767Z,80.05
2023-05-21T20:15:08.058Z,80.27
2023-05-21T20:17:36.012Z,80.60
2023-05-21T20:20:05.616Z,80.48
2023-05-21T20:22:33.396Z,81.10
2023-05-21T20:25:01.904Z,81.71
2023-05-21T20:27:31.237Z,81.71
2023-05-21T20:29:59.883Z,81.57
2023-05-21T20:32:27.248Z,82.40
2023-05-21T20:35:02.672Z,81.88
2023-05-21T20:37:32.794Z,82.78
2023-05-21T20:40:03.418Z,83.39
2023-05-21T20:42:34.391Z,82.83
2023-05-21T20:45:06.708Z,83.16
2023-05-21T20:47:40.586Z,83.32
2023-05-21T20:50:30.672Z,84.04
2023-05-21T20:53:25.196Z,84.07
2023-05-21T20:56:00.466Z,84.61
2023-05-21T20:58:27.389Z,84.87
2023-05-21T21:00:55.651Z,85.32
2023-05-21T21:03:22.719Z,85.34
2023-05-21T21:05:53.083Z,85.44
2023-05-21T21:08:20.318Z,86.06
2023-05-21T21:10:47.174Z,85.88
2023-05-21T21:13:15.022Z,86.24
2023-05-21T21:15:44.089Z,85.82
2023-05-21T21:18:12.478Z,86.02
2023-05-21T21:20:39.813Z,86.62
2023-05-21T21:23:06.613Z,86.77
2023-05-21T21:25:33.888Z,87.55
2023-05-21T21:28:05.025Z,87.63
2023-05-21T21:30:35.484Z,87.44
2023-05-21T21:33:02.125Z,87.33
2023-05-21T21:35:29.467Z,87.15
2023-05-21T21:38:00.292Z,87.49
2023-05-21T21:40:29.887Z,87.76
2023-05-21T21:42:59.783Z,88.24
2023-05-21T21:45:31.550Z,87.64
2023-05-21T21:47:59.829Z,88.05
2023-05-21T21:50:29.200Z,88.50
2023-05-21T21:55:46.169Z,88.80
2023-05-21T21:58:16.097Z,88.47
2023-05-21T22:00:43.603Z,89.20
2023-05-21T22:03:25.427Z,89.26
2023-05-21T22:05:52.274Z,89.60
2023-05-21T22:08:19.955Z,89.01
2023-05-21T22:10:49.821Z,89.07
2023-05-21T22:13:20.316Z,89.41
2023-05-21T22:16:13.413Z,89.02
2023-05-21T22:18:43.728Z,89.63
2023-05-21T22:21:14.789Z,90.05
2023-05-21T22:23:43.128Z,90.55
2023-05-21T22:26:10.121Z,90.95
2023-05-21T22:28:36.986Z,90.48
2023-05-21T22:31:03.880Z,90.76
2023-05-21T22:33:35.876Z,90.95
2023-05-21T22:36:02.512Z,91.37
2023-05-21T22:38:29.414Z,91.54
2023-05-21T22:40:56.544Z,91.43
2023-05-21T22:43:23.216Z,91.60
2023-05-21T22:45:51.407Z,92.22
2023-05-21T22:48:18.506Z,92.05
2023-05-21T22:50:46.449Z,92.67
2023-05-21T22:53:13.408Z,92.97
2023-05-21T22:56:16.290Z,93.34
2023-05-21T22:58:48.664Z,92.62
2023-05-21T23:01:21.299Z,93.50
2023-05-21T23:03:51.290Z,93.30
2023-05-21T23:06:22.539Z,93.70
2023-05-21T23:08:51.782Z,93.73
2023-05-21T23:11:21.686Z,93.29
2023-05-21T23:13:48.829Z,93.73
2023-05-21T23:16:17.357Z,94.13
2023-05-21T23:18:46.152Z,93.50
2023-05-21T23:21:15.268Z,94.34
2023-05-21T23:23:42.336Z,93.81
2023-05-21T23:26:09.194Z,93.95
2023-05-21T23:28:38.914Z,94.06
2023-05-21T23:31:08.127Z,94.52
2023-05-21T23:33:37.923Z,94.95
2023-05-21T23:36:05.360Z,95.60
2023-05-21T23:38:32.618Z,95.78
2023-05-21T23:41:00.915Z,97.00
2023-05-21T23:43:29.038Z,97.71
2023-05-21T23:45:56.058Z,98.20
2023-05-21T23:48:22.999Z,98.31
2023-05-21T23:50:53.363Z,98.98
2023-05-21T23:53:22.913Z,99.54
2023-05-21T23:55:52.743Z,99.47
2023-05-21T23:58:20.166Z,99.94
